Time;durP1;ratioP1;P1;durP2;ratioP2;P2;SDS_P1;SDS_P2;PMS_P1;PMS_P2;Temp;Humidity;BMP_temperature;BMP_pressure;BME280_temperature;BME280_humidity;BME280_pressure;Samples;Min_cycle;Max_cycle;Signal;HPM_P1;HPM_P2
2022/10/20 00:00:25;;;;;;;0.10;0.10;;;;;;;;;;5062633;28;20625;-68
2022/10/20 00:02:53;;;;;;;0.10;0.10;;;;;;;;;;5064670;28;20615;-67
2022/10/20 00:05:22;;;;;;;0.10;0.10;;;;;;;;;;5074728;28;20624;-68
2022/10/20 00:07:49;;;;;;;0.10;0.10;;;;;;;;;;5062433;28;20640;-69
2022/10/20 00:10:17;;;;;;;0.10;0.10;;;;;;;;;;5062145;28;20631;-68
2022/10/20 00:12:44;;;;;;;0.10;0.10;;;;;;;;;;5062284;28;20645;-68
2022/10/20 00:15:11;;;;;;;0.10;0.10;;;;;;;;;;5066642;28;21062;-68
2022/10/20 00:17:39;;;;;;;0.10;0.10;;;;;;;;;;5066046;28;20646;-68
2022/10/20 00:20:07;;;;;;;0.10;0.10;;;;;;;;;;5069814;28;20597;-68
2022/10/20 00:22:36;;;;;;;0.10;0.10;;;;;;;;;;5063474;28;20609;-68
2022/10/20 00:25:03;;;;;;;0.10;0.10;;;;;;;;;;5053256;28;20624;-67
2022/10/20 00:27:31;;;;;;;0.10;0.10;;;;;;;;;;5068287;28;21284;-67
2022/10/20 00:29:58;;;;;;;0.10;0.10;;;;;;;;;;5063861;28;20620;-68
2022/10/20 00:32:26;;;;;;;0.10;0.10;;;;;;;;;;5066892;28;20664;-68
2022/10/20 00:34:53;;;;;;;0.10;0.10;;;;;;;;;;5066917;28;20639;-67
2022/10/20 00:37:20;;;;;;;0.00;0.00;;;;;;;;;;5062436;28;20762;-67
2022/10/20 00:39:49;;;;;;;0.10;0.10;;;;;;;;;;5082481;28;20318;-69
2022/10/20 00:42:17;;;;;;;0.10;0.10;;;;;;;;;;5066431;28;20635;-68
2022/10/20 00:44:49;;;;;;;0.10;0.10;;;;;;;;;;5065654;28;20712;-67
2022/10/20 00:47:18;;;;;;;0.00;0.00;;;;;;;;;;5083185;28;20625;-68
2022/10/20 00:49:45;;;;;;;0.00;0.00;;;;;;;;;;5066371;28;21111;-68
2022/10/20 00:52:12;;;;;;;0.00;0.00;;;;;;;;;;5067113;28;20665;-67
2022/10/20 00:54:40;;;;;;;0.00;0.00;;;;;;;;;;5071906;28;20623;-69
2022/10/20 00:57:08;;;;;;;0.10;0.10;;;;;;;;;;5065663;28;20640;-68
2022/10/20 00:59:37;;;;;;;0.10;0.10;;;;;;;;;;5064065;28;20665;-68
2022/10/20 01:02:05;;;;;;;0.10;0.10;;;;;;;;;;5070143;28;20659;-68
2022/10/20 01:04:34;;;;;;;0.10;0.10;;;;;;;;;;5074244;28;20619;-68
2022/10/20 01:07:01;;;;;;;0.10;0.10;;;;;;;;;;5071029;28;20744;-67
2022/10/20 01:09:29;;;;;;;0.10;0.10;;;;;;;;;;5071067;28;20787;-68
2022/10/20 01:12:01;;;;;;;0.10;0.10;;;;;;;;;;5068475;28;20671;-68
2022/10/20 01:14:35;;;;;;;0.10;0.10;;;;;;;;;;5105430;27;20653;-68
2022/10/20 01:17:06;;;;;;;0.10;0.10;;;;;;;;;;5068661;28;20601;-68
2022/10/20 01:19:44;;;;;;;0.10;0.10;;;;;;;;;;5068635;28;20659;-68
2022/10/20 01:22:17;;;;;;;0.10;0.10;;;;;;;;;;5096874;27;20620;-69
2022/10/20 01:24:50;;;;;;;0.10;0.10;;;;;;;;;;5065185;28;20630;-69
2022/10/20 01:27:26;;;;;;;0.10;0.10;;;;;;;;;;5066820;28;20607;-68
2022/10/20 01:29:55;;;;;;;0.00;0.00;;;;;;;;;;5070340;28;20645;-68
2022/10/20 01:32:24;;;;;;;0.10;0.10;;;;;;;;;;5071758;28;20645;-69
2022/10/20 01:34:54;;;;;;;0.10;0.10;;;;;;;;;;5070914;28;20644;-68
2022/10/20 01:37:26;;;;;;;0.10;0.10;;;;;;;;;;5070702;28;20618;-69
2022/10/20 01:39:55;;;;;;;0.10;0.10;;;;;;;;;;5069890;28;20715;-68
2022/10/20 01:42:26;;;;;;;0.10;0.10;;;;;;;;;;5070685;28;20718;-69
2022/10/20 01:44:55;;;;;;;0.10;0.10;;;;;;;;;;5068869;28;20625;-69
2022/10/20 01:47:24;;;;;;;0.10;0.10;;;;;;;;;;5068739;28;20624;-68
2022/10/20 01:49:52;;;;;;;0.10;0.10;;;;;;;;;;5068709;28;20674;-67
2022/10/20 01:52:19;;;;;;;0.10;0.10;;;;;;;;;;5072960;28;20624;-68
2022/10/20 01:54:47;;;;;;;0.10;0.10;;;;;;;;;;5068540;28;20656;-68
2022/10/20 01:57:21;;;;;;;0.00;0.00;;;;;;;;;;5067266;28;20597;-69
2022/10/20 01:59:59;;;;;;;0.10;0.10;;;;;;;;;;5075249;28;20659;-69
2022/10/20 02:02:34;;;;;;;0.10;0.10;;;;;;;;;;5072258;28;20673;-68
2022/10/20 02:05:20;;;;;;;0.00;0.00;;;;;;;;;;5099972;27;20628;-67
2022/10/20 02:07:47;;;;;;;0.10;0.10;;;;;;;;;;5065888;28;20799;-67
2022/10/20 02:10:17;;;;;;;0.10;0.10;;;;;;;;;;5103168;27;20641;-68
2022/10/20 02:12:47;;;;;;;0.10;0.10;;;;;;;;;;5065602;28;20656;-68
2022/10/20 02:15:18;;;;;;;0.10;0.10;;;;;;;;;;5067380;28;20610;-68
2022/10/20 02:17:47;;;;;;;0.10;0.10;;;;;;;;;;5098078;27;20661;-68
2022/10/20 02:20:15;;;;;;;0.10;0.10;;;;;;;;;;5067845;28;20643;-68
2022/10/20 02:22:43;;;;;;;0.10;0.10;;;;;;;;;;5070505;28;20625;-68
2022/10/20 02:25:11;;;;;;;0.10;0.10;;;;;;;;;;5102015;27;21010;-69
2022/10/20 02:27:40;;;;;;;0.10;0.10;;;;;;;;;;5067081;28;20640;-68
2022/10/20 02:30:10;;;;;;;0.10;0.10;;;;;;;;;;5068992;28;21229;-67
2022/10/20 02:32:40;;;;;;;0.10;0.10;;;;;;;;;;5069625;28;20648;-68
2022/10/20 02:35:10;;;;;;;0.10;0.10;;;;;;;;;;5069244;28;20725;-69
2022/10/20 02:37:37;;;;;;;0.10;0.10;;;;;;;;;;5067138;28;20714;-69
2022/10/20 02:40:05;;;;;;;0.10;0.10;;;;;;;;;;5072593;28;20644;-69
2022/10/20 02:42:32;;;;;;;0.10;0.10;;;;;;;;;;5069132;28;20719;-68
2022/10/20 02:44:59;;;;;;;0.10;0.10;;;;;;;;;;5068675;28;20610;-68
2022/10/20 02:47:27;;;;;;;0.10;0.10;;;;;;;;;;5069627;28;20728;-68
2022/10/20 02:49:56;;;;;;;0.10;0.10;;;;;;;;;;5065950;28;20620;-68
2022/10/20 02:52:24;;;;;;;0.10;0.10;;;;;;;;;;5070186;28;20628;-68
2022/10/20 02:54:51;;;;;;;0.10;0.10;;;;;;;;;;5064815;28;20797;-67
2022/10/20 02:57:18;;;;;;;0.10;0.10;;;;;;;;;;5065478;28;21223;-68
2022/10/20 02:59:46;;;;;;;0.10;0.10;;;;;;;;;;5064229;28;20660;-68
2022/10/20 03:02:13;;;;;;;0.10;0.10;;;;;;;;;;5064917;28;20735;-68
2022/10/20 03:04:41;;;;;;;0.10;0.10;;;;;;;;;;5063377;28;20609;-68
2022/10/20 03:07:09;;;;;;;0.10;0.10;;;;;;;;;;5066021;28;20698;-68
2022/10/20 03:09:37;;;;;;;0.10;0.10;;;;;;;;;;5063750;28;20660;-68
2022/10/20 03:12:04;;;;;;;0.10;0.10;;;;;;;;;;5068587;28;20640;-68
2022/10/20 03:14:32;;;;;;;0.10;0.10;;;;;;;;;;5065674;28;20648;-69
2022/10/20 03:16:59;;;;;;;0.10;0.10;;;;;;;;;;5066579;28;20723;-67
2022/10/20 03:19:26;;;;;;;0.10;0.10;;;;;;;;;;5068323;28;20653;-67
2022/10/20 03:21:53;;;;;;;0.10;0.10;;;;;;;;;;5080990;28;20693;-67
2022/10/20 03:24:22;;;;;;;0.10;0.10;;;;;;;;;;5049519;28;20647;-68
2022/10/20 03:26:50;;;;;;;0.10;0.10;;;;;;;;;;5068393;28;20680;-67
2022/10/20 03:29:17;;;;;;;0.10;0.10;;;;;;;;;;5068362;28;20716;-68
2022/10/20 03:31:45;;;;;;;0.10;0.10;;;;;;;;;;5068225;28;20617;-68
2022/10/20 03:34:12;;;;;;;0.10;0.10;;;;;;;;;;5065167;28;20640;-69
2022/10/20 03:36:40;;;;;;;0.10;0.10;;;;;;;;;;5068826;28;21156;-67
2022/10/20 03:39:07;;;;;;;0.03;0.03;;;;;;;;;;5072542;28;20754;-68
2022/10/20 03:41:36;;;;;;;0.10;0.10;;;;;;;;;;5065037;28;20615;-67
2022/10/20 03:44:03;;;;;;;0.10;0.10;;;;;;;;;;5080336;28;20647;-68
2022/10/20 03:46:31;;;;;;;0.10;0.10;;;;;;;;;;5066062;28;20611;-67
2022/10/20 03:48:58;;;;;;;0.10;0.10;;;;;;;;;;5066906;28;20668;-68
2022/10/20 03:51:26;;;;;;;0.10;0.10;;;;;;;;;;5064048;28;20626;-67
2022/10/20 03:53:53;;;;;;;0.10;0.10;;;;;;;;;;5062025;28;20744;-68
2022/10/20 03:56:21;;;;;;;0.10;0.10;;;;;;;;;;5061526;28;20632;-67
2022/10/20 03:58:50;;;;;;;0.07;0.07;;;;;;;;;;5062932;28;20648;-68
2022/10/20 04:01:19;;;;;;;0.10;0.10;;;;;;;;;;5064138;28;20638;-67
2022/10/20 04:03:46;;;;;;;0.10;0.10;;;;;;;;;;5069587;28;20694;-68
2022/10/20 04:06:14;;;;;;;0.10;0.10;;;;;;;;;;5067774;28;20719;-67
2022/10/20 04:08:41;;;;;;;0.10;0.10;;;;;;;;;;5064182;28;20651;-68
2022/10/20 04:11:09;;;;;;;0.10;0.10;;;;;;;;;;5068378;28;20763;-68
2022/10/20 04:13:36;;;;;;;0.00;0.00;;;;;;;;;;5064517;28;20705;-68
2022/10/20 04:16:05;;;;;;;0.10;0.10;;;;;;;;;;5059823;28;20646;-68
2022/10/20 04:18:33;;;;;;;0.10;0.10;;;;;;;;;;5065192;28;20646;-67
2022/10/20 04:21:00;;;;;;;0.10;0.10;;;;;;;;;;5066585;28;20635;-68
2022/10/20 04:23:27;;;;;;;0.10;0.10;;;;;;;;;;5066921;28;20620;-70
2022/10/20 04:25:55;;;;;;;0.10;0.10;;;;;;;;;;5066369;28;20703;-67
2022/10/20 04:28:22;;;;;;;0.10;0.10;;;;;;;;;;5064149;28;20664;-68
2022/10/20 04:30:50;;;;;;;0.10;0.10;;;;;;;;;;5064992;28;20616;-68
2022/10/20 04:33:19;;;;;;;0.10;0.10;;;;;;;;;;5067088;28;20695;-68
2022/10/20 04:35:46;;;;;;;0.10;0.10;;;;;;;;;;5068278;28;20656;-67
2022/10/20 04:38:13;;;;;;;0.10;0.10;;;;;;;;;;5086824;28;20661;-68
2022/10/20 04:40:41;;;;;;;0.10;0.10;;;;;;;;;;5072698;28;20624;-67
2022/10/20 04:43:08;;;;;;;0.10;0.10;;;;;;;;;;5102091;27;20714;-68
2022/10/20 04:45:36;;;;;;;0.10;0.10;;;;;;;;;;5104726;27;20629;-68
2022/10/20 04:48:05;;;;;;;0.10;0.10;;;;;;;;;;5085529;28;20663;-67
2022/10/20 04:50:34;;;;;;;0.10;0.10;;;;;;;;;;5067938;28;20612;-68
2022/10/20 04:53:07;;;;;;;0.10;0.10;;;;;;;;;;5070433;28;20603;-68
2022/10/20 04:55:35;;;;;;;0.00;0.00;;;;;;;;;;5070972;28;20687;-67
2022/10/20 04:58:02;;;;;;;0.10;0.10;;;;;;;;;;5065343;28;20672;-69
2022/10/20 05:00:30;;;;;;;0.10;0.10;;;;;;;;;;5067467;28;20632;-67
2022/10/20 05:02:57;;;;;;;0.10;0.10;;;;;;;;;;5068306;28;20643;-67
2022/10/20 05:05:24;;;;;;;0.10;0.10;;;;;;;;;;5068350;28;20613;-67
2022/10/20 05:07:52;;;;;;;0.10;0.10;;;;;;;;;;5069921;28;20663;-67
2022/10/20 05:10:20;;;;;;;0.10;0.10;;;;;;;;;;5070357;28;20648;-67
2022/10/20 05:12:48;;;;;;;0.10;0.10;;;;;;;;;;5072361;28;20612;-68
2022/10/20 05:15:15;;;;;;;0.10;0.10;;;;;;;;;;5102538;27;20656;-67
2022/10/20 05:17:43;;;;;;;0.10;0.10;;;;;;;;;;5069896;28;20616;-67
2022/10/20 05:20:10;;;;;;;0.10;0.10;;;;;;;;;;5069355;28;20621;-67
2022/10/20 05:22:38;;;;;;;0.10;0.10;;;;;;;;;;5070219;28;20603;-67
2022/10/20 05:25:07;;;;;;;0.10;0.10;;;;;;;;;;5084289;28;20731;-67
2022/10/20 05:27:34;;;;;;;0.10;0.10;;;;;;;;;;5066062;28;20647;-67
2022/10/20 05:30:01;;;;;;;0.10;0.10;;;;;;;;;;5071090;28;20627;-67
2022/10/20 05:32:29;;;;;;;0.10;0.10;;;;;;;;;;5060866;28;20647;-67
2022/10/20 05:34:56;;;;;;;0.10;0.10;;;;;;;;;;5068167;28;20753;-68
2022/10/20 05:37:24;;;;;;;0.10;0.10;;;;;;;;;;5067892;28;20613;-67
2022/10/20 05:39:51;;;;;;;0.20;0.20;;;;;;;;;;5073249;28;20652;-67
2022/10/20 05:42:20;;;;;;;0.10;0.10;;;;;;;;;;5062710;28;20657;-68
2022/10/20 05:44:47;;;;;;;0.10;0.10;;;;;;;;;;5067481;28;20614;-69
2022/10/20 05:47:15;;;;;;;0.10;0.10;;;;;;;;;;5066148;28;20637;-69
2022/10/20 05:49:42;;;;;;;0.10;0.10;;;;;;;;;;5068293;28;20667;-68
2022/10/20 05:52:10;;;;;;;0.10;0.10;;;;;;;;;;5068064;28;20623;-68
2022/10/20 05:54:37;;;;;;;0.10;0.10;;;5.80;99.90;;;;;;5068679;28;20706;-68
2022/10/20 05:57:04;;;;;;;0.10;0.10;;;5.20;99.90;;;;;;5069765;28;20699;-68
2022/10/20 05:59:33;;;;;;;0.10;0.10;;;;;;;;;;5068784;28;20698;-69
2022/10/20 06:02:00;;;;;;;0.10;0.10;;;;;;;;;;5066250;28;20613;-68
2022/10/20 06:04:27;;;;;;;0.10;0.10;;;;;;;;;;5063722;28;20637;-70
2022/10/20 06:06:56;;;;;;;0.10;0.10;;;;;;;;;;5097149;27;20660;-68
2022/10/20 06:09:24;;;;;;;0.10;0.10;;;;;;;;;;5069853;28;20725;-69
2022/10/20 06:11:51;;;;;;;0.00;0.00;;;;;;;;;;5068586;28;20715;-68
2022/10/20 06:14:21;;;;;;;0.10;0.10;;;;;;;;;;5068214;28;20767;-69
2022/10/20 06:16:51;;;;;;;0.00;0.00;;;;;;;;;;5066004;28;20623;-68
2022/10/20 06:19:19;;;;;;;0.10;0.10;;;;;;;;;;5068766;28;20652;-68
2022/10/20 06:21:46;;;;;;;0.10;0.10;;;;;;;;;;5064896;28;20631;-69
2022/10/20 06:24:15;;;;;;;0.10;0.10;;;;;;;;;;5073511;28;21179;-68
2022/10/20 06:26:43;;;;;;;0.10;0.10;;;;;;;;;;5065668;28;20600;-70
2022/10/20 06:29:11;;;;;;;0.10;0.10;;;;;;;;;;5067588;28;20694;-69
2022/10/20 06:31:40;;;;;;;0.10;0.10;;;;;;;;;;5068735;28;20731;-68
2022/10/20 06:34:11;;;;;;;0.10;0.10;;;;;;;;;;5067478;28;20662;-68
2022/10/20 06:36:40;;;;;;;0.10;0.10;;;;;;;;;;5103886;27;20628;-68
2022/10/20 06:39:08;;;;;;;0.10;0.10;;;;;;;;;;5068592;28;20651;-68
2022/10/20 06:41:36;;;;;;;0.10;0.10;;;;;;;;;;5064979;28;20624;-68
2022/10/20 06:44:03;;;;;;;0.10;0.10;;;;;;;;;;5065744;28;20636;-67
2022/10/20 06:46:32;;;;;;;0.20;0.20;;;;;;;;;;5068042;28;20608;-68
2022/10/20 06:49:00;;;;;;;0.20;0.20;;;;;;;;;;5066618;28;20640;-68
2022/10/20 06:51:29;;;;;;;0.10;0.10;;;;;;;;;;5066509;28;20744;-69
2022/10/20 06:53:56;;;;;;;0.20;0.20;;;;;;;;;;5065734;28;20632;-69
2022/10/20 06:56:24;;;;;;;0.20;0.20;;;;;;;;;;5066499;28;20656;-67
2022/10/20 06:58:53;;;;;;;0.10;0.10;;;;;;;;;;5065620;28;20647;-69
2022/10/20 07:01:22;;;;;;;0.10;0.10;;;;;;;;;;5068613;28;20644;-68
2022/10/20 07:03:49;;;;;;;0.20;0.20;;;;;;;;;;5072093;28;20625;-69
2022/10/20 07:06:18;;;;;;;0.10;0.10;;;;;;;;;;5065087;28;20649;-66
2022/10/20 07:08:49;;;;;;;0.10;0.10;;;;;;;;;;5068904;28;20694;-65
2022/10/20 07:11:17;;;;;;;0.10;0.10;;;;;;;;;;5064828;28;20631;-66
2022/10/20 07:13:45;;;;;;;0.10;0.10;;;;;;;;;;5070741;28;20636;-66
2022/10/20 07:16:14;;;;;;;0.10;0.10;;;;;;;;;;5069036;28;20656;-65
2022/10/20 07:18:41;;;;;;;0.10;0.10;;;;;;;;;;5070186;28;20738;-65
2022/10/20 07:21:10;;;;;;;0.10;0.10;;;;;;;;;;5064159;28;20620;-65
2022/10/20 07:23:37;;;;;;;0.10;0.10;;;;;;;;;;5069598;28;20715;-65
2022/10/20 07:26:07;;;;;;;0.10;0.10;;;;;;;;;;5070264;28;20682;-66
2022/10/20 07:28:35;;;;;;;0.10;0.10;;;;;;;;;;5062889;28;20669;-65
2022/10/20 07:31:04;;;;;;;0.10;0.10;;;;;;;;;;5064158;28;20607;-65
2022/10/20 07:33:31;;;;;;;0.10;0.10;;;;;;;;;;5061635;28;21237;-65
2022/10/20 07:35:59;;;;;;;0.10;0.10;;;;;;;;;;5067995;28;20656;-65
2022/10/20 07:38:26;;;;;;;0.10;0.10;;;;;;;;;;5066559;28;20740;-67
2022/10/20 07:40:53;;;;;;;0.10;0.10;;;;;;;;;;5064912;28;20648;-66
2022/10/20 07:43:22;;;;;;;0.10;0.10;;;;;;;;;;5064531;28;20623;-65
2022/10/20 07:45:50;;;;;;;0.10;0.10;;;;;;;;;;5064367;28;20630;-64
2022/10/20 07:48:17;;;;;;;0.10;0.10;;;;;;;;;;5065347;28;20744;-65
2022/10/20 07:50:45;;;;;;;0.10;0.10;;;;;;;;;;5070452;28;20631;-65
2022/10/20 07:53:12;;;;;;;0.10;0.10;;;;;;;;;;5053900;28;20736;-66
2022/10/20 07:55:40;;;;;;;0.10;0.10;;;;;;;;;;5066607;28;20770;-65
2022/10/20 07:58:07;;;;;;;0.10;0.10;;;;;;;;;;5067845;28;20656;-65
2022/10/20 08:00:36;;;;;;;0.10;0.10;;;;;;;;;;5069297;28;20612;-64
2022/10/20 08:03:03;;;;;;;0.10;0.10;;;;;;;;;;5068313;28;20607;-66
2022/10/20 08:05:31;;;;;;;0.10;0.10;;;;;;;;;;5064119;28;20719;-65
2022/10/20 08:07:59;;;;;;;0.10;0.10;;;;;;;;;;5069254;28;20656;-66
2022/10/20 08:10:27;;;;;;;0.10;0.10;;;;;;;;;;5068252;28;20724;-65
2022/10/20 08:12:54;;;;;;;0.10;0.10;;;;;;;;;;5066540;28;20620;-65
2022/10/20 08:15:21;;;;;;;0.10;0.10;;;;;;;;;;5065905;28;20762;-66
2022/10/20 08:17:50;;;;;;;0.10;0.10;;;;;;;;;;5068983;28;20699;-66
2022/10/20 08:20:17;;;;;;;0.10;0.10;;;;;;;;;;5065267;28;20632;-65
2022/10/20 08:22:45;;;;;;;0.10;0.10;;;;;;;;;;5066464;28;20708;-66
2022/10/20 08:25:14;;;;;;;0.10;0.10;;;;;;;;;;5064692;28;20658;-66
2022/10/20 08:27:41;;;;;;;0.10;0.10;;;;;;;;;;5063567;28;20625;-65
2022/10/20 08:30:10;;;;;;;0.10;0.10;;;;;;;;;;5067373;28;20632;-64
2022/10/20 08:32:37;;;;;;;0.10;0.10;;;;;;;;;;5066612;28;21191;-66
2022/10/20 08:35:06;;;;;;;0.10;0.10;;;;;;;;;;5063015;28;20656;-65
2022/10/20 08:37:35;;;;;;;0.10;0.10;;;;;;;;;;5062045;28;20681;-65
2022/10/20 08:40:02;;;;;;;0.10;0.10;;;;;;;;;;5068567;28;20652;-65
2022/10/20 08:42:30;;;;;;;0.10;0.10;;;;;;;;;;5063514;28;20673;-66
2022/10/20 08:45:00;;;;;;;0.10;0.10;;;;;;;;;;5065730;28;20703;-66
2022/10/20 08:47:30;;;;;;;0.00;0.00;;;;;;;;;;5064869;28;20673;-66
2022/10/20 08:49:58;;;;;;;0.10;0.10;;;;;;;;;;5066304;28;20613;-66
2022/10/20 08:52:27;;;;;;;0.10;0.10;;;;;;;;;;5069067;28;20666;-65
2022/10/20 08:54:55;;;;;;;0.10;0.10;;;;;;;;;;5062992;28;20716;-65
2022/10/20 08:57:24;;;;;;;0.07;0.07;;;;;;;;;;5067573;28;20636;-64
2022/10/20 08:59:53;;;;;;;0.10;0.10;;;;;;;;;;5068908;28;20723;-65
2022/10/20 09:02:21;;;;;;;0.00;0.00;;;;;;;;;;5066799;28;20612;-64
2022/10/20 09:04:49;;;;;;;0.10;0.10;;;;;;;;;;5067528;28;20628;-66
2022/10/20 09:07:24;;;;;;;0.10;0.10;;;9.30;99.90;;;;;;5068293;28;20627;-65
2022/10/20 09:09:55;;;;;;;0.10;0.10;;;;;;;;;;5064027;28;20663;-65
2022/10/20 09:12:23;;;;;;;0.00;0.00;;;;;;;;;;5064333;28;20616;-66
2022/10/20 09:14:50;;;;;;;0.10;0.10;;;;;;;;;;5050523;28;20624;-66
2022/10/20 09:17:18;;;;;;;0.10;0.10;;;9.70;99.90;;;;;;5067187;28;20675;-66
2022/10/20 09:19:47;;;;;;;0.10;0.10;;;;;;;;;;5064822;28;20755;-65
2022/10/20 09:22:16;;;;;;;0.10;0.10;;;10.00;99.90;;;;;;5065785;28;20700;-66
2022/10/20 09:24:44;;;;;;;0.10;0.10;;;10.30;99.90;;;;;;5067909;28;20634;-64
2022/10/20 09:27:22;;;;;;;0.10;0.10;;;10.40;99.90;;;;;;5073001;28;20703;-64
2022/10/20 09:29:50;;;;;;;0.10;0.10;;;10.50;99.90;;;;;;5066513;28;20669;-65
2022/10/20 09:32:19;;;;;;;0.10;0.10;;;10.60;99.90;;;;;;5082212;28;20641;-66
2022/10/20 09:34:46;;;;;;;0.00;0.00;;;10.60;99.90;;;;;;5101340;27;20621;-66
2022/10/20 09:37:18;;;;;;;0.10;0.10;;;10.60;99.90;;;;;;5082047;28;20643;-65
2022/10/20 09:39:51;;;;;;;0.10;0.10;;;10.60;99.90;;;;;;5069613;28;20647;-66
2022/10/20 09:42:21;;;;;;;0.10;0.10;;;;;;;;;;5067559;28;20625;-65
2022/10/20 09:44:50;;;;;;;0.03;0.03;;;;;;;;;;5072423;28;20720;-65
2022/10/20 09:47:17;;;;;;;0.10;0.10;;;;;;;;;;5068044;28;20624;-66
2022/10/20 09:49:45;;;;;;;0.10;0.10;;;;;;;;;;5069120;28;20740;-65
2022/10/20 09:52:18;;;;;;;0.10;0.10;;;;;;;;;;5066880;28;20604;-66
2022/10/20 09:54:47;;;;;;;0.10;0.10;;;;;;;;;;5065953;28;20724;-66
2022/10/20 09:57:17;;;;;;;0.10;0.10;;;;;;;;;;5063498;28;21302;-65
2022/10/20 09:59:47;;;;;;;0.10;0.10;;;;;;;;;;5070357;28;20272;-64
2022/10/20 10:02:29;;;;;;;0.10;0.10;;;;;;;;;;5075755;28;20657;-66
2022/10/20 10:05:17;;;;;;;0.10;0.10;;;;;;;;;;5067873;28;20624;-67
2022/10/20 10:07:45;;;;;;;0.10;0.10;;;;;;;;;;5063622;28;20225;-67
2022/10/20 10:10:24;;;;;;;0.10;0.10;;;;;;;;;;5073827;28;20656;-67
2022/10/20 10:12:52;;;;;;;0.10;0.10;;;;;;;;;;5065623;28;20631;-69
2022/10/20 10:15:26;;;;;;;0.10;0.10;;;;;;;;;;5068298;28;20649;-67
2022/10/20 10:17:54;;;;;;;0.00;0.00;;;10.70;99.90;;;;;;5066025;28;20222;-67
2022/10/20 10:20:32;;;;;;;0.10;0.10;;;;;;;;;;5067149;28;20631;-68
2022/10/20 10:23:23;;;;;;;0.10;0.10;;;;;;;;;;5103262;27;20221;-69
2022/10/20 10:25:51;;;;;;;0.00;0.00;;;;;;;;;;5067824;28;20202;-67
2022/10/20 10:28:29;;;;;;;0.10;0.10;;;11.60;99.90;;;;;;5067480;28;20368;-68
2022/10/20 10:31:07;;;;;;;0.10;0.10;;;;;;;;;;5083351;28;20201;-68
2022/10/20 10:33:34;;;;;;;0.10;0.10;;;11.90;99.90;;;;;;5099028;27;20203;-68
2022/10/20 10:36:03;;;;;;;0.10;0.10;;;12.40;99.90;;;;;;5066237;28;20217;-67
2022/10/20 10:38:30;;;;;;;0.10;0.10;;;12.50;99.90;;;;;;5070281;28;20226;-68
2022/10/20 10:41:08;;;;;;;0.10;0.10;;;12.60;99.90;;;;;;5064775;28;20333;-69
2022/10/20 10:43:44;;;;;;;0.10;0.10;;;12.70;99.90;;;;;;5094437;27;20202;-66
2022/10/20 10:46:19;;;;;;;0.10;0.10;;;13.00;99.90;;;;;;5070310;28;20198;-68
2022/10/20 10:49:25;;;;;;;0.10;0.10;;;12.90;99.90;;;;;;5063579;28;20270;-69
2022/10/20 10:52:02;;;;;;;0.00;0.00;;;13.00;99.90;;;;;;5013776;28;20270;-69
2022/10/20 10:54:36;;;;;;;0.10;0.10;;;;;;;;;;5059780;28;20198;-69
2022/10/20 10:57:06;;;;;;;0.00;0.00;;;;;;;;;;5067812;28;20280;-68
2022/10/20 10:59:35;;;;;;;0.10;0.10;;;;;;;;;;5102088;27;20256;-68
2022/10/20 11:02:18;;;;;;;0.10;0.10;;;;;;;;;;5070281;28;20228;-69
2022/10/20 11:05:01;;;;;;;0.10;0.10;;;;;;;;;;5068472;28;20315;-69
2022/10/20 11:07:34;;;;;;;0.10;0.10;;;;;;;;;;5067830;28;20198;-70
2022/10/20 11:10:05;;;;;;;0.00;0.00;;;;;;;;;;5068992;28;20194;-67
2022/10/20 11:12:42;;;;;;;0.10;0.10;;;;;;;;;;5065901;28;20198;-69
2022/10/20 11:15:16;;;;;;;0.10;0.10;;;;;;;;;;5103083;27;20308;-69
2022/10/20 11:17:49;;;;;;;0.10;0.10;;;;;;;;;;5067735;28;20214;-70
2022/10/20 11:20:21;;;;;;;0.00;0.00;;;;;;;;;;5085830;28;20229;-72
2022/10/20 11:23:00;;;;;;;0.00;0.00;;;14.00;99.90;;;;;;5070817;28;20202;-70
2022/10/20 11:25:32;;;;;;;0.10;0.10;;;14.00;99.90;;;;;;5070308;28;20198;-69
2022/10/20 11:28:00;;;;;;;0.10;0.10;;;13.90;99.90;;;;;;5069048;28;20218;-70
2022/10/20 11:30:28;;;;;;;0.00;0.00;;;13.80;99.90;;;;;;5066392;28;20199;-70
2022/10/20 11:33:04;;;;;;;0.10;0.10;;;13.90;99.90;;;;;;5064742;28;20293;-68
2022/10/20 11:35:39;;;;;;;0.10;0.10;;;13.90;99.90;;;;;;5063336;28;20208;-68
2022/10/20 11:38:15;;;;;;;0.10;0.10;;;;;;;;;;5065377;28;20210;-67
2022/10/20 11:40:45;;;;;;;0.10;0.10;;;;;;;;;;5066936;28;20278;-69
2022/10/20 11:43:15;;;;;;;0.10;0.10;;;;;;;;;;5065745;28;20305;-68
2022/10/20 11:45:45;;;;;;;0.00;0.00;;;;;;;;;;5102618;27;20226;-70
2022/10/20 11:48:17;;;;;;;0.10;0.10;;;;;;;;;;5066251;28;20230;-71
2022/10/20 11:50:49;;;;;;;0.07;0.07;;;;;;;;;;5096072;27;20207;-69
2022/10/20 11:53:24;;;;;;;0.00;0.00;;;;;;;;;;5059542;28;20203;-69
2022/10/20 11:56:06;;;;;;;0.00;0.00;;;;;;;;;;5065108;28;20225;-69
2022/10/20 11:58:43;;;;;;;0.00;0.00;;;;;;;;;;5048323;28;20226;-67
2022/10/20 12:01:21;;;;;;;0.00;0.00;;;;;;;;;;5064430;28;20241;-71
2022/10/20 12:04:06;;;;;;;0.10;0.10;;;;;;;;;;5064726;28;20198;-68
2022/10/20 12:06:58;;;;;;;0.00;0.00;;;;;;;;;;5061970;28;20195;-68
2022/10/20 12:09:44;;;;;;;0.10;0.10;;;;;;;;;;5060358;28;20226;-70
2022/10/20 12:12:14;;;;;;;0.10;0.10;;;;;;;;;;5067405;28;20218;-69
2022/10/20 12:14:43;;;;;;;0.00;0.00;;;;;;;;;;5066833;28;20252;-70
2022/10/20 12:17:17;;;;;;;0.10;0.10;;;;;;;;;;5069181;28;20222;-71
2022/10/20 12:19:49;;;;;;;0.00;0.00;;;;;;;;;;5097157;27;20223;-68
2022/10/20 12:22:35;;;;;;;0.03;0.03;;;;;;;;;;5066705;28;20251;-68
2022/10/20 12:25:34;;;;;;;0.10;0.10;;;;;;;;;;5068975;28;20202;-69
2022/10/20 12:28:21;;;;;;;0.10;0.10;;;;;;;;;;5065744;28;20214;-68
2022/10/20 12:30:54;;;;;;;0.10;0.10;;;;;;;;;;5067178;28;20201;-69
2022/10/20 12:33:35;;;;;;;0.03;0.03;;;;;;;;;;5066213;28;20207;-67
2022/10/20 12:36:15;;;;;;;0.10;0.10;;;;;;;;;;5065703;28;20259;-65
2022/10/20 12:38:43;;;;;;;0.03;0.03;;;;;;;;;;5063590;28;20241;-66
2022/10/20 12:41:13;;;;;;;0.10;0.10;;;;;;;;;;5065053;28;20202;-64
2022/10/20 12:43:50;;;;;;;0.00;0.00;;;;;;;;;;5062362;28;20205;-66
2022/10/20 12:46:21;;;;;;;0.10;0.10;;;;;;;;;;5062415;28;20191;-66
2022/10/20 12:48:55;;;;;;;0.10;0.10;;;;;;;;;;5068269;28;20229;-67
2022/10/20 12:51:33;;;;;;;0.00;0.00;;;;;;;;;;5067620;28;20233;-65
2022/10/20 12:54:02;;;;;;;0.10;0.10;;;;;;;;;;5064065;28;20698;-66
2022/10/20 12:56:33;;;;;;;0.00;0.00;;;;;;;;;;5067482;28;20221;-65
2022/10/20 12:59:09;;;;;;;0.00;0.00;;;;;;;;;;5074070;28;20256;-67
2022/10/20 13:01:51;;;;;;;0.00;0.00;;;;;;;;;;5067785;28;20213;-66
2022/10/20 13:04:33;;;;;;;0.00;0.00;;;;;;;;;;5101865;27;20199;-65
2022/10/20 13:07:02;;;;;;;0.00;0.00;;;;;;;;;;5070025;28;20190;-64
2022/10/20 13:09:29;;;;;;;0.10;0.10;;;;;;;;;;5071000;28;20271;-66
2022/10/20 13:12:02;;;;;;;0.00;0.00;;;;;;;;;;5070893;28;20206;-66
2022/10/20 13:14:45;;;;;;;0.00;0.00;;;;;;;;;;5069210;28;20198;-67
2022/10/20 13:17:17;;;;;;;0.00;0.00;;;;;;;;;;5086719;28;20713;-66
2022/10/20 13:19:46;;;;;;;0.00;0.00;;;;;;;;;;5100809;27;20229;-66
2022/10/20 13:22:35;;;;;;;0.00;0.00;;;;;;;;;;5070804;28;20294;-65
2022/10/20 13:25:03;;;;;;;0.00;0.00;;;;;;;;;;5070029;28;20335;-66
2022/10/20 13:27:31;;;;;;;0.00;0.00;;;;;;;;;;5070821;28;20259;-67
2022/10/20 13:29:59;;;;;;;0.00;0.00;;;;;;;;;;5067135;28;20217;-66
2022/10/20 13:32:32;;;;;;;0.10;0.10;;;;;;;;;;5066728;28;20198;-66
2022/10/20 13:35:02;;;;;;;0.00;0.00;;;;;;;;;;5069263;28;20195;-66
2022/10/20 13:37:38;;;;;;;0.00;0.00;;;;;;;;;;5068256;28;20237;-67
2022/10/20 13:40:12;;;;;;;0.00;0.00;;;;;;;;;;5067357;28;20285;-66
2022/10/20 13:42:47;;;;;;;0.00;0.00;;;;;;;;;;5067936;28;20206;-66
2022/10/20 13:45:21;;;;;;;0.00;0.00;;;;;;;;;;5073498;28;20574;-67
2022/10/20 13:47:51;;;;;;;0.03;0.03;;;;;;;;;;5071962;28;20325;-65
2022/10/20 13:50:21;;;;;;;0.00;0.00;;;;;;;;;;5065206;28;20198;-66
2022/10/20 13:52:51;;;;;;;0.00;0.00;;;;;;;;;;5063734;28;20278;-67
2022/10/20 13:55:20;;;;;;;0.00;0.00;;;;;;;;;;5068878;28;20195;-64
2022/10/20 13:57:51;;;;;;;0.00;0.00;;;;;;;;;;5058414;28;20230;-66
2022/10/20 14:00:20;;;;;;;0.07;0.07;;;;;;;;;;5064827;28;20198;-67
2022/10/20 14:02:55;;;;;;;0.00;0.00;;;;;;;;;;5065202;28;20205;-65
2022/10/20 14:05:23;;;;;;;0.00;0.00;;;;;;;;;;5100211;27;20198;-66
2022/10/20 14:07:52;;;;;;;0.00;0.00;;;;;;;;;;5064206;28;20207;-66
2022/10/20 14:10:24;;;;;;;0.00;0.00;;;;;;;;;;5074603;28;20220;-66
2022/10/20 14:12:52;;;;;;;0.00;0.00;;;;;;;;;;5084383;28;20211;-65
2022/10/20 14:15:23;;;;;;;0.00;0.00;;;;;;;;;;5068551;28;20259;-66
2022/10/20 14:17:57;;;;;;;0.00;0.00;;;;;;;;;;5067382;28;20340;-66
2022/10/20 14:20:25;;;;;;;0.10;0.10;;;14.00;99.90;;;;;;5100850;27;20207;-66
2022/10/20 14:22:54;;;;;;;0.00;0.00;;;14.10;99.90;;;;;;5067387;28;20203;-66
2022/10/20 14:25:23;;;;;;;0.00;0.00;;;14.00;99.90;;;;;;5099917;27;20210;-65
2022/10/20 14:27:52;;;;;;;0.00;0.00;;;14.00;99.90;;;;;;5067946;28;20620;-66
2022/10/20 14:30:19;;;;;;;0.00;0.00;;;13.90;99.90;;;;;;5064666;28;20209;-66
2022/10/20 14:32:49;;;;;;;0.00;0.00;;;13.90;99.90;;;;;;5065167;28;20202;-66
2022/10/20 14:35:25;;;;;;;0.00;0.00;;;13.80;99.90;;;;;;5066223;28;20229;-65
2022/10/20 14:37:57;;;;;;;0.00;0.00;;;13.70;99.90;;;;;;5067502;28;20271;-66
2022/10/20 14:40:27;;;;;;;0.00;0.00;;;13.70;99.90;;;;;;5067477;28;20218;-66
2022/10/20 14:43:00;;;;;;;0.00;0.00;;;13.60;99.90;;;;;;5064995;28;20225;-66
2022/10/20 14:45:28;;;;;;;0.00;0.00;;;13.60;99.90;;;;;;5066880;28;20202;-66